Time;durP1;ratioP1;P1;durP2;ratioP2;P2;SDS_P1;SDS_P2;PMS_P1;PMS_P2;Temp;Humidity;BMP_temperature;BMP_pressure;BME280_temperature;BME280_humidity;BME280_pressure;Samples;Min_cycle;Max_cycle;Signal;HPM_P1;HPM_P2
2022/11/10 00:01:03;;;;;;;5.03;1.80;;;13.20;99.90;;;;;;5113504;28;20479;-69
2022/11/10 00:03:30;;;;;;;3.07;1.73;;;13.20;99.90;;;;;;5114245;28;20511;-69
2022/11/10 00:05:57;;;;;;;2.10;1.70;;;13.10;99.90;;;;;;5111785;28;20448;-69
2022/11/10 00:08:24;;;;;;;3.53;1.80;;;13.10;99.90;;;;;;5115161;28;20463;-69
2022/11/10 00:10:57;;;;;;;4.30;1.50;;;13.10;99.90;;;;;;5117194;28;20481;-68
2022/11/10 00:13:27;;;;;;;7.30;2.37;;;13.10;99.90;;;;;;5119257;28;20492;-68
2022/11/10 00:18:40;;;;;;;3.90;1.80;;;13.10;99.90;;;;;;5119567;28;20432;-69
2022/11/10 00:21:08;;;;;;;5.90;1.70;;;13.10;99.90;;;;;;5119643;28;20437;-69
2022/11/10 00:23:36;;;;;;;6.93;1.63;;;13.10;99.90;;;;;;5119617;28;20456;-68
2022/11/10 00:26:03;;;;;;;5.10;2.33;;;13.20;99.90;;;;;;5119955;28;20567;-68
2022/11/10 00:28:32;;;;;;;3.17;1.60;;;13.20;99.90;;;;;;5120254;28;20868;-69
2022/11/10 00:31:04;;;;;;;8.40;2.10;;;13.20;99.90;;;;;;5119533;28;20477;-69
2022/11/10 00:33:31;;;;;;;6.70;1.73;;;13.20;99.90;;;;;;5119850;28;20459;-69
2022/11/10 00:36:00;;;;;;;8.20;1.80;;;13.20;99.90;;;;;;5118566;28;20441;-69
2022/11/10 00:38:27;;;;;;;3.20;1.70;;;13.30;99.90;;;;;;5118891;28;20453;-69
2022/11/10 00:40:54;;;;;;;2.90;1.60;;;13.30;99.90;;;;;;5117912;28;20449;-68
2022/11/10 00:43:21;;;;;;;5.60;2.00;;;13.30;99.90;;;;;;5118150;28;20456;-68
2022/11/10 00:45:49;;;;;;;3.60;1.47;;;13.30;99.90;;;;;;5118163;28;20464;-69
2022/11/10 00:48:16;;;;;;;5.23;2.17;;;13.30;99.90;;;;;;5117250;28;20452;-69
2022/11/10 00:50:43;;;;;;;4.93;1.60;;;13.30;99.90;;;;;;5113737;28;20471;-69
2022/11/10 00:53:10;;;;;;;4.23;1.60;;;13.30;99.90;;;;;;5114644;28;20443;-68
2022/11/10 00:55:38;;;;;;;4.90;1.70;;;13.30;99.90;;;;;;5113859;28;20509;-69
2022/11/10 00:58:05;;;;;;;4.93;2.00;;;13.30;99.90;;;;;;5113487;28;20488;-69
2022/11/10 01:00:33;;;;;;;6.87;1.90;;;13.30;99.90;;;;;;5112538;28;20461;-68
2022/11/10 01:03:02;;;;;;;4.30;1.80;;;13.30;99.90;;;;;;5112655;28;20474;-69
2022/11/10 01:05:29;;;;;;;2.00;1.73;;;13.30;99.90;;;;;;5114801;28;20449;-68
2022/11/10 01:07:58;;;;;;;3.57;1.87;;;13.30;99.90;;;;;;5115713;28;20453;-70
2022/11/10 01:10:25;;;;;;;5.90;2.40;;;13.30;99.90;;;;;;5115781;28;20453;-69
2022/11/10 01:12:52;;;;;;;3.70;2.40;;;13.40;99.90;;;;;;5115220;28;20477;-68
2022/11/10 01:15:20;;;;;;;3.63;1.70;;;13.30;99.90;;;;;;5115433;28;20449;-69
2022/11/10 01:17:47;;;;;;;5.53;2.47;;;13.30;99.90;;;;;;5115999;28;20488;-69
2022/11/10 01:20:16;;;;;;;5.43;1.80;;;13.30;99.90;;;;;;5117667;28;20453;-68
2022/11/10 01:22:44;;;;;;;4.00;2.87;;;13.40;99.90;;;;;;5116604;28;20513;-69
2022/11/10 01:25:11;;;;;;;4.13;1.70;;;13.40;99.90;;;;;;5115953;28;20457;-68
2022/11/10 01:27:38;;;;;;;7.53;2.20;;;13.40;99.90;;;;;;5117664;28;20556;-69
2022/11/10 01:30:05;;;;;;;6.57;2.70;;;13.40;99.90;;;;;;5117668;28;20453;-69
2022/11/10 01:32:32;;;;;;;2.90;1.90;;;13.40;99.90;;;;;;5117742;28;20485;-69
2022/11/10 01:34:59;;;;;;;5.00;2.07;;;13.40;99.90;;;;;;5116283;28;20482;-69
2022/11/10 01:37:27;;;;;;;9.47;1.97;;;13.40;99.90;;;;;;5117392;28;20452;-69
2022/11/10 01:39:54;;;;;;;6.23;2.73;;;13.40;99.90;;;;;;5115952;28;20445;-69
2022/11/10 01:42:26;;;;;;;3.27;1.50;;;13.40;99.90;;;;;;5114805;28;20450;-69
2022/11/10 01:45:39;;;;;;;5.70;2.13;;;13.50;99.90;;;;;;5115604;28;20457;-68
2022/11/10 01:48:08;;;;;;;4.97;1.70;;;13.40;99.90;;;;;;5079396;28;20532;-69
2022/11/10 01:50:39;;;;;;;7.63;3.00;;;13.40;99.90;;;;;;5115030;28;20457;-68
2022/11/10 01:53:14;;;;;;;5.17;1.90;;;13.40;99.90;;;;;;5114688;28;20480;-69
2022/11/10 01:55:43;;;;;;;5.63;2.20;;;13.40;99.90;;;;;;5114688;28;20437;-69
2022/11/10 01:58:14;;;;;;;5.47;2.37;;;13.40;99.90;;;;;;5114935;28;20797;-68
2022/11/10 02:00:42;;;;;;;5.43;1.83;;;13.30;99.90;;;;;;5115316;28;20441;-69
2022/11/10 02:03:14;;;;;;;5.80;2.43;;;13.30;99.90;;;;;;5115824;28;20468;-68
2022/11/10 02:05:43;;;;;;;3.40;1.60;;;13.30;99.90;;;;;;5117193;28;20444;-69
2022/11/10 02:08:14;;;;;;;7.90;1.83;;;13.30;99.90;;;;;;5116921;28;20498;-69
2022/11/10 02:10:41;;;;;;;3.87;1.70;;;13.30;99.90;;;;;;5116416;28;20445;-69
2022/11/10 02:13:08;;;;;;;6.23;1.90;;;13.30;99.90;;;;;;5116367;28;20477;-68
2022/11/10 02:15:35;;;;;;;4.57;1.70;;;13.30;99.90;;;;;;5113397;28;20582;-68
2022/11/10 02:18:02;;;;;;;6.00;1.97;;;13.30;99.90;;;;;;5115392;28;20450;-68
2022/11/10 02:20:29;;;;;;;3.47;1.70;;;13.30;99.90;;;;;;5115491;28;20507;-69
2022/11/10 02:22:57;;;;;;;5.33;1.97;;;13.30;99.90;;;;;;5113932;28;20788;-68
2022/11/10 02:25:27;;;;;;;6.23;2.03;;;13.20;99.90;;;;;;5115321;28;20508;-69
2022/11/10 02:27:54;;;;;;;3.80;2.67;;;13.20;99.90;;;;;;5112462;28;20475;-69
2022/11/10 02:30:21;;;;;;;3.50;1.60;;;13.20;99.90;;;;;;5112536;28;20509;-70
2022/11/10 02:32:48;;;;;;;9.23;2.17;;;13.10;99.90;;;;;;5108213;28;20481;-68
2022/11/10 02:35:15;;;;;;;2.90;2.03;;;13.10;99.90;;;;;;5109270;28;20461;-69
2022/11/10 02:37:42;;;;;;;5.33;1.97;;;13.10;99.90;;;;;;5111250;28;20449;-69
2022/11/10 02:40:11;;;;;;;3.43;2.10;;;13.10;99.90;;;;;;5109961;28;20510;-69
2022/11/10 02:42:38;;;;;;;3.90;2.00;;;13.10;99.90;;;;;;5106588;28;20562;-69
2022/11/10 02:45:07;;;;;;;3.73;1.60;;;13.00;99.90;;;;;;5107629;28;20461;-69
2022/11/10 02:47:34;;;;;;;2.37;1.57;;;13.00;99.90;;;;;;5108684;28;20489;-69
2022/11/10 02:50:01;;;;;;;6.20;2.10;;;13.00;99.90;;;;;;5110843;28;20560;-69
2022/11/10 02:52:28;;;;;;;2.90;1.87;;;13.00;99.90;;;;;;5111464;28;20481;-69
2022/11/10 02:54:55;;;;;;;6.90;1.60;;;13.00;99.90;;;;;;5111018;28;20450;-69
2022/11/10 02:57:24;;;;;;;3.50;1.60;;;13.00;99.90;;;;;;5112754;28;20726;-69
2022/11/10 02:59:50;;;;;;;5.23;1.70;;;13.00;99.90;;;;;;5111038;28;20449;-69
2022/11/10 03:02:17;;;;;;;6.70;2.03;;;13.00;99.90;;;;;;5108761;28;20472;-69
2022/11/10 03:04:44;;;;;;;6.37;1.90;;;13.00;99.90;;;;;;5110032;28;20472;-69
2022/11/10 03:07:11;;;;;;;4.83;1.70;;;13.00;99.90;;;;;;5109116;28;20454;-69
2022/11/10 03:09:38;;;;;;;6.53;2.00;;;12.90;99.90;;;;;;5111207;28;20457;-69
2022/11/10 03:12:05;;;;;;;4.40;2.03;;;12.90;99.90;;;;;;5113132;28;20553;-69
2022/11/10 03:14:34;;;;;;;4.70;1.80;;;13.00;99.90;;;;;;5110526;28;20454;-69
2022/11/10 03:17:01;;;;;;;4.50;2.13;;;12.90;99.90;;;;;;5111567;28;20453;-68
2022/11/10 03:19:28;;;;;;;7.63;2.07;;;12.90;99.90;;;;;;5111204;28;20491;-68
2022/11/10 03:21:54;;;;;;;5.10;2.00;;;12.90;99.90;;;;;;5107321;28;20473;-69
2022/11/10 03:24:21;;;;;;;5.83;2.30;;;12.90;99.90;;;;;;5111323;28;20479;-69
2022/11/10 03:26:49;;;;;;;7.80;2.30;;;12.90;99.90;;;;;;5111036;28;20510;-70
2022/11/10 03:29:16;;;;;;;6.80;2.53;;;12.90;99.90;;;;;;5110439;28;20464;-70
2022/11/10 03:31:44;;;;;;;9.77;2.37;;;12.90;99.90;;;;;;5111376;28;20485;-70
2022/11/10 03:34:11;;;;;;;8.87;2.53;;;12.90;99.90;;;;;;5112026;28;20457;-70
2022/11/10 03:36:38;;;;;;;5.10;1.90;;;12.80;99.90;;;;;;5111624;28;20453;-68
2022/11/10 03:39:05;;;;;;;3.10;2.20;;;12.80;99.90;;;;;;5112040;28;20487;-69
2022/11/10 03:41:32;;;;;;;8.83;2.50;;;12.80;99.90;;;;;;5111779;28;20450;-69
2022/11/10 03:43:59;;;;;;;7.50;1.93;;;12.80;99.90;;;;;;5111421;28;20483;-69
2022/11/10 03:46:26;;;;;;;6.60;2.50;;;12.80;99.90;;;;;;5109008;28;20484;-69
2022/11/10 03:48:55;;;;;;;2.90;2.10;;;12.80;99.90;;;;;;5107497;28;20464;-70
2022/11/10 03:51:22;;;;;;;8.73;2.37;;;12.70;99.90;;;;;;5113649;28;20465;-70
2022/11/10 03:53:49;;;;;;;4.00;2.50;;;12.70;99.90;;;;;;5111361;28;20449;-70
2022/11/10 03:56:16;;;;;;;5.93;2.40;;;12.70;99.90;;;;;;5109911;28;20457;-69
2022/11/10 03:58:43;;;;;;;4.40;2.00;;;12.70;99.90;;;;;;5111797;28;20453;-70
2022/11/10 04:01:10;;;;;;;6.77;2.40;;;12.60;99.90;;;;;;5113538;28;20464;-68
2022/11/10 04:03:37;;;;;;;6.37;2.37;;;12.60;99.90;;;;;;5108896;28;20450;-69
2022/11/10 04:09:00;;;;;;;5.03;2.30;;;12.60;99.90;;;;;;5113262;28;20452;-70
2022/11/10 04:17:11;;;;;;;3.90;2.00;;;12.50;99.90;;;;;;5069693;28;20498;-69
2022/11/10 04:19:38;;;;;;;9.33;2.17;;;12.50;99.90;;;;;;5090819;28;20449;-69
2022/11/10 04:23:25;;;;;;;3.77;2.50;;;12.50;99.90;;;;;;5108914;28;20485;-68
2022/11/10 04:24:53;;;;;;;4.93;2.43;;;12.40;99.90;;;;;;5108365;28;20548;-68
2022/11/10 04:27:20;;;;;;;9.80;2.93;;;12.40;99.90;;;;;;5110310;28;20508;-69
2022/11/10 04:29:47;;;;;;;7.40;3.17;;;12.40;99.90;;;;;;5109641;28;20453;-69
2022/11/10 04:32:14;;;;;;;4.70;2.63;;;12.30;99.90;;;;;;5108497;28;20481;-69
2022/11/10 04:34:41;;;;;;;6.33;2.50;;;12.30;99.90;;;;;;5106642;28;20456;-69
2022/11/10 04:37:09;;;;;;;6.20;2.90;;;12.20;99.90;;;;;;5107337;28;20514;-69
2022/11/10 04:39:36;;;;;;;4.77;2.60;;;12.20;99.90;;;;;;5110072;28;20464;-69
2022/11/10 04:42:03;;;;;;;5.53;3.07;;;12.10;99.90;;;;;;5110353;28;20469;-69
2022/11/10 04:44:30;;;;;;;4.23;2.67;;;12.10;99.90;;;;;;5109735;28;20453;-70
2022/11/10 04:46:57;;;;;;;9.00;2.97;;;12.10;99.90;;;;;;5108984;28;20469;-69
2022/11/10 04:49:24;;;;;;;5.33;2.83;;;12.00;99.90;;;;;;5109020;28;20462;-70
2022/11/10 04:51:51;;;;;;;5.47;2.40;;;12.00;99.90;;;;;;5108550;28;20445;-67
2022/11/10 04:54:19;;;;;;;8.50;3.73;;;11.90;99.90;;;;;;5111522;28;20449;-70
2022/11/10 04:56:46;;;;;;;8.87;2.77;;;11.90;99.90;;;;;;5113841;28;20453;-68
2022/11/10 04:59:13;;;;;;;6.13;2.50;;;11.90;99.90;;;;;;5111979;28;20468;-68
2022/11/10 05:01:40;;;;;;;7.40;2.60;;;11.90;99.90;;;;;;5113525;28;20515;-68
2022/11/10 05:04:07;;;;;;;5.47;3.20;;;11.90;99.90;;;;;;5113564;28;20456;-68
2022/11/10 05:06:34;;;;;;;6.93;3.23;;;11.90;99.90;;;;;;5113336;28;20510;-69
2022/11/10 05:09:01;;;;;;;4.83;2.43;;;11.80;99.90;;;;;;5113314;28;20470;-69
2022/11/10 05:11:29;;;;;;;6.30;2.93;;;11.80;99.90;;;;;;5113787;28;20494;-68
2022/11/10 05:13:56;;;;;;;7.50;3.53;;;11.80;99.90;;;;;;5113161;28;20512;-69
2022/11/10 05:16:23;;;;;;;5.83;3.20;;;11.80;99.90;;;;;;5113517;28;20472;-69
2022/11/10 05:18:53;;;;;;;6.80;2.93;;;11.80;99.90;;;;;;5112861;28;20537;-68
2022/11/10 05:21:20;;;;;;;7.60;3.40;;;11.80;99.90;;;;;;5112300;28;20539;-68
2022/11/10 05:23:47;;;;;;;5.17;3.33;;;11.70;99.90;;;;;;5117035;28;20514;-68
2022/11/10 05:26:15;;;;;;;6.03;3.13;;;11.70;99.90;;;;;;5117086;28;20481;-69
2022/11/10 05:28:45;;;;;;;10.70;3.57;;;11.70;99.90;;;;;;5114532;28;20487;-69
2022/11/10 05:31:13;;;;;;;8.80;3.60;;;11.70;99.90;;;;;;5115398;28;20518;-68
2022/11/10 05:33:40;;;;;;;10.73;4.43;;;11.70;99.90;;;;;;5115437;28;20502;-68
2022/11/10 05:36:08;;;;;;;8.33;3.33;;;11.70;99.90;;;;;;5116389;28;20461;-69
2022/11/10 05:38:35;;;;;;;4.90;2.60;;;11.70;99.90;;;;;;5116415;28;20524;-67
2022/11/10 05:41:02;;;;;;;10.97;3.67;;;11.70;99.90;;;;;;5117449;28;20487;-69
2022/11/10 05:43:29;;;;;;;8.93;3.50;;;11.70;99.90;;;;;;5116686;28;20452;-69
2022/11/10 05:45:57;;;;;;;9.63;4.30;;;11.60;99.90;;;;;;5116410;28;20464;-69
2022/11/10 05:48:24;;;;;;;6.37;3.17;;;11.60;99.90;;;;;;5116330;28;20457;-69
2022/11/10 05:50:51;;;;;;;11.73;4.50;;;11.60;99.90;;;;;;5115641;28;20445;-69
2022/11/10 05:53:19;;;;;;;15.57;4.30;;;11.60;99.90;;;;;;5113851;28;20469;-69
2022/11/10 05:55:46;;;;;;;11.57;4.57;;;11.60;99.90;;;;;;5115271;28;20521;-69
2022/11/10 05:58:12;;;;;;;8.03;3.83;;;11.60;99.90;;;;;;5114721;28;20449;-69
2022/11/10 06:00:39;;;;;;;9.20;4.20;;;11.50;99.90;;;;;;5115253;28;20492;-70
2022/11/10 06:03:13;;;;;;;9.40;4.20;;;11.50;99.90;;;;;;5115684;28;20475;-68
2022/11/10 06:05:40;;;;;;;14.07;5.20;;;11.60;99.90;;;;;;5114968;28;20445;-70
2022/11/10 06:08:08;;;;;;;9.10;4.03;;;11.50;99.90;;;;;;5113548;28;20464;-69
2022/11/10 06:10:36;;;;;;;11.77;4.73;;;11.50;99.90;;;;;;5114167;28;20468;-69
2022/11/10 06:13:03;;;;;;;12.23;4.50;;;11.50;99.90;;;;;;5112779;28;20473;-69
2022/11/10 06:15:31;;;;;;;12.10;4.77;;;11.50;99.90;;;;;;5111131;28;20946;-70
2022/11/10 06:17:58;;;;;;;8.73;3.93;;;11.50;99.90;;;;;;5112838;28;20468;-69
2022/11/10 06:20:27;;;;;;;9.83;4.30;;;11.40;99.90;;;;;;5112833;28;20484;-69
2022/11/10 06:23:02;;;;;;;9.63;4.33;;;11.40;99.90;;;;;;5114061;28;20450;-72
2022/11/10 06:25:30;;;;;;;6.93;3.97;;;11.40;99.90;;;;;;5112134;28;20553;-69
2022/11/10 06:27:57;;;;;;;11.60;3.93;;;11.40;99.90;;;;;;5114246;28;20453;-69
2022/11/10 06:30:26;;;;;;;10.00;4.17;;;11.30;99.90;;;;;;5115177;28;20483;-69
2022/11/10 06:32:53;;;;;;;6.90;4.50;;;11.30;99.90;;;;;;5114534;28;20469;-69
2022/11/10 06:35:21;;;;;;;9.53;4.07;;;11.30;99.90;;;;;;5113908;28;20487;-69
2022/11/10 06:37:59;;;;;;;10.23;4.33;;;11.30;99.90;;;;;;5113648;28;20448;-68
2022/11/10 06:40:26;;;;;;;8.27;3.80;;;11.40;99.90;;;;;;5112532;28;20441;-68
2022/11/10 06:42:53;;;;;;;9.23;3.93;;;11.40;99.90;;;;;;5112900;28;20460;-69
2022/11/10 06:45:20;;;;;;;11.20;4.17;;;11.30;99.90;;;;;;5111817;28;20450;-69
2022/11/10 06:47:46;;;;;;;9.53;3.47;;;11.30;99.90;;;;;;5111922;28;20461;-70
2022/11/10 06:50:14;;;;;;;8.27;4.50;;;11.30;99.90;;;;;;5110264;28;20487;-69
2022/11/10 06:52:41;;;;;;;14.07;5.10;;;11.30;99.90;;;;;;5111009;28;20515;-69
2022/11/10 06:55:09;;;;;;;11.70;4.47;;;11.30;99.90;;;;;;5109685;28;20453;-68
2022/11/10 06:57:38;;;;;;;6.07;3.90;;;11.30;99.90;;;;;;5110274;28;20533;-69
2022/11/10 07:00:06;;;;;;;9.57;4.60;;;11.30;99.90;;;;;;5111458;28;20473;-70
2022/11/10 07:02:33;;;;;;;7.97;3.87;;;11.30;99.90;;;;;;5110696;28;20483;-68
2022/11/10 07:05:00;;;;;;;9.23;3.83;;;11.30;99.90;;;;;;5109910;28;20483;-68
2022/11/10 07:07:26;;;;;;;8.70;4.00;;;11.30;99.90;;;;;;5109386;28;20473;-69
2022/11/10 07:09:53;;;;;;;6.40;3.97;;;11.30;99.90;;;;;;5112371;28;20517;-69
2022/11/10 07:12:22;;;;;;;8.27;4.10;;;11.30;99.90;;;;;;5112850;28;20795;-69
2022/11/10 07:14:49;;;;;;;9.20;3.93;;;11.40;99.90;;;;;;5112898;28;20453;-69
2022/11/10 07:17:16;;;;;;;9.97;3.70;;;11.40;99.90;;;;;;5112985;28;20449;-69
2022/11/10 07:19:43;;;;;;;10.67;4.47;;;11.40;99.90;;;;;;5113237;28;20450;-69
2022/11/10 07:22:11;;;;;;;9.00;3.63;;;11.50;99.90;;;;;;5111693;28;20449;-69
2022/11/10 07:24:40;;;;;;;11.30;4.30;;;11.50;99.90;;;;;;5113021;28;20467;-70
2022/11/10 07:27:08;;;;;;;12.20;4.23;;;11.50;99.90;;;;;;5111343;28;20441;-69
2022/11/10 07:29:38;;;;;;;4.90;3.70;;;11.50;99.90;;;;;;5112261;28;20517;-70
2022/11/10 07:32:06;;;;;;;15.40;4.10;;;11.50;99.90;;;;;;5110355;28;20475;-70
2022/11/10 07:34:33;;;;;;;7.50;4.40;;;11.50;99.90;;;;;;5107599;28;20503;-70
2022/11/10 07:37:01;;;;;;;9.50;3.73;;;11.50;99.90;;;;;;5108041;28;20458;-70
2022/11/10 07:42:12;;;;;;;9.63;3.27;;;11.50;99.90;;;;;;5110077;28;20469;-69
2022/11/10 07:44:41;;;;;;;8.07;3.80;;;11.50;99.90;;;;;;5108497;28;20445;-69
2022/11/10 07:47:08;;;;;;;9.70;4.00;;;11.50;99.90;;;;;;5110771;28;20586;-69
2022/11/10 07:49:35;;;;;;;6.77;4.00;;;11.50;99.90;;;;;;5110995;28;20513;-69
2022/11/10 07:52:02;;;;;;;9.40;4.17;;;11.50;99.90;;;;;;5110937;28;20449;-69
2022/11/10 07:54:29;;;;;;;8.73;4.07;;;11.60;99.90;;;;;;5111004;28;20967;-70
2022/11/10 07:56:56;;;;;;;7.47;3.70;;;11.60;99.90;;;;;;5111099;28;20453;-69
2022/11/10 07:59:22;;;;;;;10.03;4.07;;;11.60;99.90;;;;;;5110019;28;20758;-70
2022/11/10 08:01:51;;;;;;;13.57;4.90;;;11.60;99.90;;;;;;5111596;28;20457;-68
2022/11/10 08:04:18;;;;;;;7.53;4.20;;;11.60;99.90;;;;;;5111820;28;20454;-69
2022/11/10 08:06:45;;;;;;;9.27;4.70;;;11.60;99.90;;;;;;5111032;28;20522;-69
2022/11/10 08:09:12;;;;;;;10.20;5.90;;;11.60;99.90;;;;;;5110723;28;20457;-69
2022/11/10 08:11:39;;;;;;;10.33;4.50;;;11.70;99.90;;;;;;5111299;28;20453;-70
2022/11/10 08:14:06;;;;;;;7.87;4.77;;;11.70;99.90;;;;;;5112154;28;20490;-69
2022/11/10 08:16:33;;;;;;;11.73;4.57;;;11.70;99.90;;;;;;5112376;28;20450;-70
2022/11/10 08:19:01;;;;;;;8.53;4.03;;;11.70;99.90;;;;;;5113628;28;20448;-69
2022/11/10 08:21:28;;;;;;;11.90;4.23;;;11.80;99.90;;;;;;5112649;28;20453;-69
2022/11/10 08:23:55;;;;;;;10.97;4.37;;;11.80;99.90;;;;;;5112927;28;20446;-70
2022/11/10 08:26:22;;;;;;;13.67;5.80;;;11.90;99.90;;;;;;5111689;28;20961;-71
2022/11/10 08:28:49;;;;;;;9.77;4.70;;;11.90;99.90;;;;;;5113283;28;20463;-71
2022/11/10 08:31:16;;;;;;;11.67;5.30;;;11.90;99.90;;;;;;5114720;28;20453;-69
2022/11/10 08:33:43;;;;;;;14.00;4.97;;;12.00;99.90;;;;;;5114056;28;20538;-70
2022/11/10 08:36:13;;;;;;;12.70;4.80;;;12.00;99.90;;;;;;5113633;28;20481;-69
2022/11/10 08:38:40;;;;;;;10.33;4.43;;;12.00;99.90;;;;;;5113208;28;20540;-70
2022/11/10 08:41:07;;;;;;;12.20;4.70;;;12.10;99.90;;;;;;5110760;28;20542;-69
2022/11/10 08:43:34;;;;;;;12.67;4.83;;;12.10;99.90;;;;;;5108896;28;20850;-69
2022/11/10 08:46:01;;;;;;;8.93;4.50;;;12.10;99.90;;;;;;5107405;28;20473;-68
2022/11/10 08:48:28;;;;;;;13.43;4.90;;;12.20;99.90;;;;;;5108081;28;20453;-69
2022/11/10 08:50:55;;;;;;;12.33;5.50;;;12.20;99.90;;;;;;5112314;28;20454;-69
2022/11/10 08:53:24;;;;;;;10.47;4.63;;;12.30;99.90;;;;;;5114060;28;20460;-69
2022/11/10 08:55:52;;;;;;;8.57;4.90;;;12.40;99.90;;;;;;5114756;28;20456;-70
2022/11/10 08:58:21;;;;;;;12.50;4.97;;;12.40;99.90;;;;;;5114797;28;20517;-70
2022/11/10 09:00:48;;;;;;;10.90;4.63;;;12.40;99.90;;;;;;5116693;28;20866;-69
2022/11/10 09:03:19;;;;;;;9.43;4.93;;;12.40;99.90;;;;;;5114070;28;20437;-70
2022/11/10 09:05:48;;;;;;;8.23;4.10;;;12.50;99.90;;;;;;5115004;28;20457;-69
2022/11/10 09:08:16;;;;;;;8.90;5.00;;;12.60;99.90;;;;;;5115866;28;20464;-69
2022/11/10 09:10:49;;;;;;;11.57;5.07;;;12.70;99.90;;;;;;5114976;28;20475;-70
2022/11/10 09:13:17;;;;;;;11.90;4.70;;;12.70;99.90;;;;;;5115858;28;20429;-69
2022/11/10 09:15:44;;;;;;;8.57;4.17;;;12.90;99.90;;;;;;5112783;28;20937;-69
2022/11/10 09:18:16;;;;;;;9.40;4.30;;;12.90;99.90;;;;;;5113023;28;20483;-71
2022/11/10 09:20:43;;;;;;;5.70;4.50;;;12.90;99.90;;;;;;5112549;28;20437;-69
2022/11/10 09:23:12;;;;;;;11.70;4.50;;;12.90;99.90;;;;;;5115564;28;20442;-69
2022/11/10 09:25:39;;;;;;;13.80;5.17;;;12.90;99.90;;;;;;5117128;28;20477;-69
2022/11/10 09:28:12;;;;;;;14.23;4.67;;;12.90;99.90;;;;;;5114896;28;20449;-70
2022/11/10 09:30:39;;;;;;;9.67;3.70;;;12.90;99.90;;;;;;5115129;28;20475;-69
2022/11/10 09:33:06;;;;;;;13.17;4.73;;;13.00;99.90;;;;;;5114042;28;20441;-69
2022/11/10 09:35:33;;;;;;;12.00;5.20;;;13.00;99.90;;;;;;5113640;28;20437;-71
2022/11/10 09:38:00;;;;;;;12.40;4.77;;;13.00;99.90;;;;;;5112658;28;20466;-68
2022/11/10 09:40:38;;;;;;;9.20;4.53;;;13.00;99.90;;;;;;5112117;28;20453;-69
2022/11/10 09:43:11;;;;;;;13.43;4.83;;;13.00;99.90;;;;;;5113599;28;20453;-70
2022/11/10 09:45:42;;;;;;;11.50;4.07;;;13.10;99.90;;;;;;5112841;28;20438;-69
2022/11/10 09:48:18;;;;;;;9.90;4.20;;;13.20;99.90;;;;;;5112277;28;20475;-69
2022/11/10 09:50:50;;;;;;;10.63;4.30;;;13.30;99.90;;;;;;5111724;28;20445;-70
2022/11/10 09:53:23;;;;;;;16.60;4.80;;;13.30;99.90;;;;;;5112446;28;20438;-69
2022/11/10 09:55:53;;;;;;;13.03;4.70;;;13.30;99.90;;;;;;5111264;28;20514;-69
2022/11/10 09:58:23;;;;;;;8.33;3.53;;;13.30;99.90;;;;;;5111426;28;20453;-71
2022/11/10 10:00:59;;;;;;;9.90;4.70;;;13.20;99.90;;;;;;5113325;28;20453;-69
2022/11/10 10:03:30;;;;;;;13.17;4.23;;;13.20;99.90;;;;;;5114972;28;20550;-69
2022/11/10 10:06:07;;;;;;;10.90;5.03;;;13.30;99.90;;;;;;5115928;28;20463;-69
2022/11/10 10:08:46;;;;;;;7.80;4.27;;;13.30;99.90;;;;;;5114957;28;20421;-69
2022/11/10 10:11:25;;;;;;;10.50;3.90;;;13.30;99.90;;;;;;5116051;28;20454;-70
2022/11/10 10:14:10;;;;;;;13.97;4.67;;;13.40;99.90;;;;;;5115706;28;20480;-69
2022/11/10 10:16:43;;;;;;;9.70;4.30;;;13.40;99.90;;;;;;5115893;28;20437;-69
2022/11/10 10:19:21;;;;;;;11.70;4.07;;;13.50;99.90;;;;;;5115869;28;20434;-69
2022/11/10 10:22:04;;;;;;;11.30;3.77;;;13.50;99.90;;;;;;5115818;28;20449;-70
2022/11/10 10:24:33;;;;;;;9.37;4.07;;;13.40;99.90;;;;;;5115440;28;20430;-69
2022/11/10 10:27:03;;;;;;;7.87;4.00;;;13.40;99.90;;;;;;5114820;28;20509;-70
2022/11/10 10:29:37;;;;;;;7.90;4.63;;;13.40;99.90;;;;;;5114412;28;20430;-69
2022/11/10 10:32:08;;;;;;;6.70;4.13;;;13.30;99.90;;;;;;5115714;28;20489;-70
2022/11/10 10:34:36;;;;;;;11.80;3.80;;;13.40;99.90;;;;;;5114322;28;20473;-69
2022/11/10 10:37:03;;;;;;;14.37;4.33;;;13.40;99.90;;;;;;5115311;28;20462;-69
2022/11/10 10:39:35;;;;;;;9.60;3.90;;;13.50;99.90;;;;;;5115302;28;20464;-69
2022/11/10 10:42:04;;;;;;;8.80;3.90;;;13.60;99.90;;;;;;5112990;28;20468;-69
2022/11/10 10:44:33;;;;;;;14.10;4.17;;;13.70;99.90;;;;;;5112038;28;20456;-70
2022/11/10 10:47:01;;;;;;;12.80;3.77;;;13.80;99.90;;;;;;5114856;28;20460;-70
2022/11/10 10:49:32;;;;;;;9.23;3.80;;;13.90;99.90;;;;;;5114710;28;20437;-70
2022/11/10 10:52:05;;;;;;;8.87;3.57;;;14.00;99.90;;;;;;5115318;28;20438;-70
2022/11/10 10:54:34;;;;;;;12.50;3.90;;;14.00;99.90;;;;;;5115439;28;20477;-70
2022/11/10 10:57:03;;;;;;;6.57;3.73;;;14.00;99.90;;;;;;5115080;28;20479;-69
2022/11/10 10:59:30;;;;;;;8.13;4.40;;;14.00;99.90;;;;;;5113905;28;20453;-69
2022/11/10 11:01:58;;;;;;;6.07;3.40;;;14.00;99.90;;;;;;5112740;28;20445;-71
2022/11/10 11:04:28;;;;;;;10.60;4.43;;;14.00;99.90;;;;;;5113925;28;20449;-70
2022/11/10 11:06:57;;;;;;;7.93;3.30;;;14.00;99.90;;;;;;5114063;28;20464;-70
2022/11/10 11:09:26;;;;;;;4.50;3.67;;;13.90;99.90;;;;;;5114584;28;20441;-70
2022/11/10 11:12:02;;;;;;;5.80;3.53;;;14.00;99.90;;;;;;5115081;28;20453;-71
2022/11/10 11:14:30;;;;;;;4.80;3.20;;;14.10;99.90;;;;;;5114568;28;20477;-70
2022/11/10 11:17:01;;;;;;;11.90;4.07;;;14.10;99.90;;;;;;5114014;28;20851;-70
2022/11/10 11:19:31;;;;;;;14.33;3.60;;;14.10;99.90;;;;;;5111471;28;20892;-70
2022/11/10 11:22:28;;;;;;;9.17;3.40;;;14.20;99.90;;;;;;5112813;28;20437;-69
2022/11/10 11:25:06;;;;;;;10.60;3.60;;;14.20;99.90;;;;;;5111078;28;20484;-70
2022/11/10 11:27:43;;;;;;;4.43;3.00;;;14.20;99.90;;;;;;5111942;28;20450;-69
2022/11/10 11:30:12;;;;;;;6.30;3.13;;;14.20;99.90;;;;;;5110352;28;20471;-69
2022/11/10 11:33:03;;;;;;;8.97;3.50;;;14.20;99.90;;;;;;5108625;28;20426;-69
2022/11/10 11:35:39;;;;;;;8.20;3.87;;;14.20;99.90;;;;;;5107608;28;20874;-70
2022/11/10 11:38:12;;;;;;;12.20;3.17;;;14.20;99.90;;;;;;5112843;28;20463;-69
2022/11/10 11:40:52;;;;;;;6.03;3.17;;;14.30;99.90;;;;;;5110777;28;20434;-70
2022/11/10 11:43:59;;;;;;;9.33;4.00;;;14.50;99.90;;;;;;5109310;28;20457;-69
2022/11/10 11:46:34;;;;;;;8.40;3.50;;;14.50;99.90;;;;;;5049305;28;20529;-71
2022/11/10 11:49:23;;;;;;;7.00;3.80;;;14.50;99.90;;;;;;5047708;28;20562;-68
2022/11/10 11:51:57;;;;;;;14.60;3.13;;;14.40;99.90;;;;;;5088009;28;20458;-68
2022/11/10 11:54:29;;;;;;;8.20;3.07;;;14.90;99.90;;;;;;5110780;28;20461;-70
2022/11/10 11:57:03;;;;;;;7.83;3.00;;;15.70;99.90;;;;;;5110372;28;20518;-70
2022/11/10 11:59:56;;;;;;;7.40;2.87;;;16.50;99.90;;;;;;5109563;28;20436;-70
2022/11/10 12:02:42;;;;;;;7.13;3.00;;;17.20;99.90;;;;;;5109778;28;20432;-70
2022/11/10 12:05:42;;;;;;;9.57;3.10;;;18.00;99.90;;;;;;5109202;28;20449;-69
2022/11/10 12:08:20;;;;;;;8.27;2.97;;;17.80;99.90;;;;;;5111571;28;20441;-70
2022/11/10 12:10:58;;;;;;;8.50;3.40;;;17.20;99.90;;;;;;5113076;28;20449;-69
2022/11/10 12:13:37;;;;;;;15.60;3.40;;;16.80;99.90;;;;;;5110897;28;20461;-69
2022/11/10 12:16:12;;;;;;;8.47;2.83;;;16.30;99.90;;;;;;5111128;28;20527;-69
2022/11/10 12:18:47;;;;;;;6.97;2.83;;;15.80;99.90;;;;;;5113171;28;20452;-69
2022/11/10 12:21:29;;;;;;;7.30;3.30;;;15.50;99.90;;;;;;5112989;28;20780;-70
2022/11/10 12:24:25;;;;;;;5.50;2.30;;;15.20;99.90;;;;;;5114655;28;20441;-70
2022/11/10 12:26:56;;;;;;;7.73;2.67;;;15.10;99.90;;;;;;5102872;28;20461;-69
2022/11/10 12:29:30;;;;;;;5.93;2.80;;;15.10;99.90;;;;;;5113365;28;20471;-69
2022/11/10 12:32:06;;;;;;;13.10;2.57;;;15.00;99.90;;;;;;5113317;28;20434;-71
2022/11/10 12:34:39;;;;;;;7.60;2.70;;;15.00;99.90;;;;;;5114182;28;20476;-69
2022/11/10 12:37:17;;;;;;;7.20;2.80;;;15.00;99.90;;;;;;5110849;28;20458;-69
2022/11/10 12:39:53;;;;;;;5.53;2.20;;;15.00;99.90;;;;;;5110978;28;20441;-69
2022/11/10 12:42:24;;;;;;;7.40;2.53;;;14.90;99.90;;;;;;5113248;28;20453;-69
2022/11/10 12:45:01;;;;;;;7.03;3.10;;;14.90;99.90;;;;;;5113915;28;20450;-69
2022/11/10 12:47:33;;;;;;;9.47;3.20;;;15.00;99.90;;;;;;5113535;28;20514;-69
2022/11/10 12:50:18;;;;;;;8.87;2.67;;;15.00;99.90;;;;;;5111202;28;20441;-69
2022/11/10 12:52:52;;;;;;;7.33;3.00;;;14.90;99.90;;;;;;5108172;28;20494;-70
2022/11/10 12:55:21;;;;;;;8.93;2.60;;;14.80;99.90;;;;;;5111952;28;20570;-70
2022/11/10 12:57:48;;;;;;;9.67;2.67;;;14.80;99.90;;;;;;5110177;28;20475;-70
2022/11/10 13:00:28;;;;;;;7.33;3.00;;;14.80;99.90;;;;;;5108727;28;20558;-70
2022/11/10 13:02:57;;;;;;;12.13;2.70;;;15.00;99.90;;;;;;5108075;28;20437;-69
2022/11/10 13:05:28;;;;;;;11.33;2.00;;;15.10;99.90;;;;;;5113633;28;20452;-69
2022/11/10 13:08:16;;;;;;;11.83;2.37;;;15.20;99.90;;;;;;5111391;28;20471;-69
2022/11/10 13:10:51;;;;;;;5.47;2.90;;;15.40;99.90;;;;;;5105943;28;20434;-70
2022/11/10 13:13:19;;;;;;;5.90;2.57;;;15.40;99.90;;;;;;5104829;28;20437;-70